PAGA

Edward G Pitka Sr Airport

Galena, Alaska, USA
METAR PAGA 181656Z AUTO 14004KT 10SM CLR 08/07 A3018 RMK AO2 SLP222 T00780072
Observed Flight Rules
Sep-18 @ 16:56 UTC (36 minutes ago) Visual Flight Rules
Wind Visibility Clouds
140° at 4 knots 10 miles
  • Clear skies
Temperatures Readings
Current 8°C / 46°F
Dewpoint 7°C / 45°F
Humidity 93%
Altimeter 30.18" Hg
Pressure 1022.2 hPa
Elevation 46
METAR PAGA 181656Z AUTO 14004KT 10SM CLR 08/07 A3018 RMK AO2 SLP222 T00780072
Observed Flight Rules
Sep-18 @ 16:56 UTC
(36 minutes ago)
VFR
Wind Visibility
140° at 4 knots 10 miles
Clouds
  • Clear skies
Temperature Dewpoint
8°C / 46°F 7°C / 45°F
Humidity Altimeter Pressure
93% 30.18" Hg 1022.2 hPa